createdAt,value
2023-05-10T00:01:49.126Z,6.13
2023-05-10T00:04:17.167Z,6.06
2023-05-10T00:06:45.026Z,6.04
2023-05-10T00:09:12.720Z,6.04
2023-05-10T00:11:40.561Z,5.96
2023-05-10T00:14:08.169Z,5.93
2023-05-10T00:16:36.564Z,5.88
2023-05-10T00:19:04.366Z,5.91
2023-05-10T00:21:33.631Z,5.83
2023-05-10T00:24:01.461Z,5.86
2023-05-10T00:26:29.338Z,5.70
2023-05-10T00:28:59.699Z,5.76
2023-05-10T00:31:27.756Z,5.76
2023-05-10T00:33:56.077Z,5.72
2023-05-10T00:36:24.277Z,5.73
2023-05-10T00:38:51.963Z,5.71
2023-05-10T00:41:20.039Z,5.66
2023-05-10T00:43:48.871Z,5.65
2023-05-10T00:46:18.714Z,5.66
2023-05-10T00:48:46.908Z,5.65
2023-05-10T00:51:15.632Z,5.62
2023-05-10T00:53:43.312Z,5.62
2023-05-10T00:56:11.938Z,5.60
2023-05-10T00:58:40.823Z,5.53
2023-05-10T01:01:10.428Z,5.52
2023-05-10T01:03:38.160Z,5.50
2023-05-10T01:06:06.607Z,5.45
2023-05-10T01:08:34.325Z,5.42
2023-05-10T01:11:02.639Z,5.31
2023-05-10T01:13:36.152Z,5.28
2023-05-10T01:16:04.929Z,5.26
2023-05-10T01:18:34.691Z,5.21
2023-05-10T01:21:23.043Z,5.19
2023-05-10T01:24:28.156Z,5.18
2023-05-10T01:27:18.356Z,5.13
2023-05-10T01:29:46.246Z,5.13
2023-05-10T01:32:46.196Z,5.06
2023-05-10T01:35:21.578Z,5.01
2023-05-10T01:38:23.924Z,5.03
2023-05-10T01:41:16.966Z,5.00
2023-05-10T01:43:55.888Z,5.00
2023-05-10T01:46:34.989Z,4.95
2023-05-10T01:49:05.098Z,4.92
2023-05-10T01:51:50.443Z,4.92
2023-05-10T01:54:21.055Z,4.91
2023-05-10T01:56:54.519Z,4.85
2023-05-10T01:59:23.411Z,4.85
2023-05-10T02:01:53.005Z,4.80
2023-05-10T02:04:23.628Z,4.79
2023-05-10T02:06:52.994Z,4.75
2023-05-10T02:09:22.026Z,4.69
2023-05-10T02:11:50.446Z,4.63
2023-05-10T02:14:18.928Z,4.60
2023-05-10T02:16:47.055Z,4.61
2023-05-10T02:19:15.466Z,4.52
2023-05-10T02:21:43.107Z,4.45
2023-05-10T02:24:12.376Z,4.37
2023-05-10T02:26:39.791Z,4.29
2023-05-10T02:29:09.246Z,4.25
2023-05-10T02:31:39.870Z,4.25
2023-05-10T02:34:10.351Z,4.23
2023-05-10T02:36:39.903Z,4.20
2023-05-10T02:39:11.517Z,4.15
2023-05-10T02:41:39.472Z,4.14
2023-05-10T02:44:09.065Z,4.14
2023-05-10T02:46:38.260Z,4.10
2023-05-10T02:49:07.088Z,4.07
2023-05-10T02:51:39.090Z,4.06
2023-05-10T02:54:14.396Z,4.08
2023-05-10T02:56:53.137Z,4.09
2023-05-10T02:59:21.672Z,4.09
2023-05-10T03:01:49.454Z,4.09
2023-05-10T03:04:17.480Z,4.08
2023-05-10T03:06:46.099Z,4.08
2023-05-10T03:09:16.613Z,4.16
2023-05-10T03:11:50.100Z,4.12
2023-05-10T03:14:30.687Z,4.23
2023-05-10T03:17:02.759Z,4.25
2023-05-10T03:19:45.397Z,4.26
2023-05-10T03:22:14.391Z,4.26
2023-05-10T03:24:43.846Z,4.28
2023-05-10T03:27:11.674Z,4.33
2023-05-10T03:29:41.152Z,4.33
2023-05-10T03:32:09.618Z,4.39
2023-05-10T03:34:43.351Z,4.49
2023-05-10T03:37:11.749Z,4.52
2023-05-10T03:39:39.653Z,4.61
2023-05-10T03:42:09.926Z,4.70
2023-05-10T03:44:38.777Z,4.72
2023-05-10T03:47:06.762Z,4.79
2023-05-10T03:49:34.837Z,4.89
2023-05-10T03:52:03.939Z,4.96
2023-05-10T03:54:33.595Z,5.02
2023-05-10T03:57:02.138Z,5.21
2023-05-10T03:59:31.971Z,5.27
2023-05-10T04:01:59.805Z,5.30
2023-05-10T04:04:28.158Z,5.40
2023-05-10T04:06:56.164Z,5.47
2023-05-10T04:09:24.557Z,5.55
2023-05-10T04:11:52.317Z,5.68
2023-05-10T04:14:20.214Z,5.85
2023-05-10T04:16:48.009Z,5.91
2023-05-10T04:19:16.582Z,6.02
2023-05-10T04:21:44.954Z,6.18
2023-05-10T04:24:13.789Z,6.33
2023-05-10T04:26:41.630Z,6.47
2023-05-10T04:29:09.975Z,6.58
2023-05-10T04:31:37.617Z,6.74
2023-05-10T04:34:05.584Z,6.91
2023-05-10T04:36:38.090Z,7.05
2023-05-10T04:39:07.093Z,7.25
2023-05-10T04:41:35.258Z,7.47
2023-05-10T04:44:03.357Z,7.69
2023-05-10T04:46:30.838Z,7.83
2023-05-10T04:48:58.534Z,8.03
2023-05-10T04:51:26.184Z,8.28
2023-05-10T04:54:05.268Z,8.46
2023-05-10T04:56:34.641Z,8.62
2023-05-10T04:59:02.762Z,8.80
2023-05-10T05:01:30.582Z,9.00
2023-05-10T05:03:58.465Z,9.25
2023-05-10T05:06:26.938Z,9.47
2023-05-10T05:08:54.729Z,9.64
2023-05-10T05:11:22.419Z,9.93
2023-05-10T05:13:50.164Z,10.16
2023-05-10T05:16:18.265Z,10.52
2023-05-10T05:18:46.288Z,10.69
2023-05-10T05:21:21.442Z,10.84
2023-05-10T05:23:49.655Z,11.34
2023-05-10T05:26:17.354Z,11.56
2023-05-10T05:28:45.305Z,11.84
2023-05-10T05:31:13.398Z,12.03
2023-05-10T05:33:41.733Z,12.37
2023-05-10T05:36:10.132Z,12.75
2023-05-10T05:38:38.221Z,12.87
2023-05-10T05:41:06.864Z,12.80
2023-05-10T05:43:38.043Z,13.00
2023-05-10T05:46:06.485Z,13.24
2023-05-10T05:48:34.732Z,13.51
2023-05-10T05:51:04.692Z,13.52
2023-05-10T05:53:34.956Z,13.45
2023-05-10T05:56:03.092Z,13.20
2023-05-10T05:58:30.570Z,13.06
2023-05-10T06:00:58.890Z,13.17
2023-05-10T06:03:26.615Z,13.29
2023-05-10T06:05:54.858Z,13.52
2023-05-10T06:08:22.812Z,13.90
2023-05-10T06:10:50.871Z,14.29
2023-05-10T06:13:18.862Z,14.28
2023-05-10T06:15:46.972Z,14.24
2023-05-10T06:18:14.878Z,14.38
2023-05-10T06:20:43.836Z,14.47
2023-05-10T06:23:11.355Z,14.21
2023-05-10T06:25:39.678Z,14.27
2023-05-10T06:28:07.525Z,14.24
2023-05-10T06:30:37.851Z,14.20
2023-05-10T06:33:05.631Z,14.49
2023-05-10T06:35:34.841Z,14.53
2023-05-10T06:38:02.535Z,14.91
2023-05-10T06:40:30.997Z,15.07
2023-05-10T06:42:58.727Z,15.18
2023-05-10T06:45:26.597Z,15.21
2023-05-10T06:47:54.353Z,15.19
2023-05-10T06:50:23.978Z,15.20
2023-05-10T06:52:53.049Z,15.42
2023-05-10T06:55:21.366Z,15.82
2023-05-10T06:57:49.352Z,15.86
2023-05-10T07:00:18.737Z,15.82
2023-05-10T07:02:47.240Z,15.58
2023-05-10T07:05:16.584Z,15.67
2023-05-10T07:07:44.679Z,16.09
2023-05-10T07:10:13.136Z,16.56
2023-05-10T07:12:40.987Z,16.91
2023-05-10T07:15:09.947Z,16.67
2023-05-10T07:17:37.871Z,16.48
2023-05-10T07:20:06.981Z,16.65
2023-05-10T07:22:35.099Z,16.78
2023-05-10T07:25:04.141Z,16.98
2023-05-10T07:27:31.846Z,16.73
2023-05-10T07:29:59.941Z,17.02
2023-05-10T07:32:28.243Z,17.12
2023-05-10T07:34:56.885Z,17.34
2023-05-10T07:37:24.675Z,17.60
2023-05-10T07:39:52.593Z,17.54
2023-05-10T07:42:20.286Z,17.20
2023-05-10T07:44:48.561Z,17.13
2023-05-10T07:47:16.280Z,16.93
2023-05-10T07:49:44.637Z,16.78
2023-05-10T07:52:12.353Z,16.86
2023-05-10T07:54:40.673Z,16.94
2023-05-10T07:57:08.462Z,17.22
2023-05-10T07:59:36.411Z,17.50
2023-05-10T08:02:04.371Z,17.70
2023-05-10T08:04:33.340Z,17.86
2023-05-10T08:07:00.864Z,17.51
2023-05-10T08:09:28.776Z,17.45
2023-05-10T08:11:56.629Z,17.43
2023-05-10T08:14:24.760Z,17.23
2023-05-10T08:16:52.966Z,17.12
2023-05-10T08:19:22.538Z,17.16
2023-05-10T08:21:50.379Z,17.21
2023-05-10T08:24:18.198Z,16.92
2023-05-10T08:26:45.907Z,16.98
2023-05-10T08:29:14.232Z,16.90
2023-05-10T08:31:41.871Z,16.84
2023-05-10T08:34:11.706Z,17.10
2023-05-10T08:36:41.281Z,17.31
2023-05-10T08:39:16.236Z,17.06
2023-05-10T08:41:53.227Z,17.10
2023-05-10T08:44:22.143Z,17.11
2023-05-10T08:46:53.502Z,16.91
2023-05-10T08:49:23.270Z,16.67
2023-05-10T08:51:55.105Z,16.69
2023-05-10T08:54:23.685Z,16.54
2023-05-10T08:56:51.658Z,16.36
2023-05-10T08:59:20.093Z,16.46
2023-05-10T09:01:50.583Z,16.56
2023-05-10T09:04:18.858Z,16.73
2023-05-10T09:06:46.737Z,16.78
2023-05-10T09:09:16.427Z,16.80
2023-05-10T09:11:45.001Z,16.75
2023-05-10T09:14:14.284Z,16.70
2023-05-10T09:16:42.677Z,16.63
2023-05-10T09:19:11.407Z,16.71
2023-05-10T09:21:39.953Z,16.87
2023-05-10T09:24:10.848Z,16.75
2023-05-10T09:26:52.786Z,16.86
2023-05-10T09:29:22.725Z,16.92
2023-05-10T09:31:53.000Z,16.75
2023-05-10T09:34:30.860Z,16.96
2023-05-10T09:37:02.249Z,17.00
2023-05-10T09:39:38.750Z,16.81
2023-05-10T09:42:08.490Z,16.90
2023-05-10T09:44:39.209Z,16.84
2023-05-10T09:47:10.498Z,17.10
2023-05-10T09:49:39.359Z,17.07
2023-05-10T09:52:09.032Z,17.12
2023-05-10T09:54:37.657Z,17.07
2023-05-10T09:57:05.303Z,16.97
2023-05-10T09:59:36.083Z,16.97
2023-05-10T10:02:04.078Z,16.88
2023-05-10T10:04:33.333Z,16.99
2023-05-10T10:07:05.237Z,17.07
2023-05-10T10:09:34.766Z,17.11
2023-05-10T10:12:03.828Z,17.18
2023-05-10T10:14:32.276Z,17.01
2023-05-10T10:19:34.220Z,16.97
2023-05-10T10:22:02.001Z,16.95
2023-05-10T10:24:30.463Z,17.03
2023-05-10T10:27:19.218Z,17.17
2023-05-10T10:30:14.858Z,17.22
2023-05-10T10:33:05.633Z,17.06
2023-05-10T10:35:40.476Z,17.15
2023-05-10T10:38:10.785Z,17.10
2023-05-10T10:40:39.578Z,17.11
2023-05-10T10:43:26.966Z,17.23
2023-05-10T10:46:18.888Z,17.30
2023-05-10T10:48:52.734Z,17.47
2023-05-10T10:51:20.839Z,17.55
2023-05-10T10:53:49.511Z,17.68
2023-05-10T10:56:24.929Z,17.76
2023-05-10T10:58:54.904Z,17.67
2023-05-10T11:01:23.321Z,17.52
2023-05-10T11:04:09.804Z,17.61
2023-05-10T11:06:38.288Z,17.51
2023-05-10T11:09:10.212Z,17.42
2023-05-10T11:11:39.405Z,17.57
2023-05-10T11:14:08.280Z,17.61
2023-05-10T11:16:46.367Z,17.57
2023-05-10T11:19:15.461Z,17.59
2023-05-10T11:21:51.898Z,17.73
2023-05-10T11:24:24.462Z,17.70
2023-05-10T11:26:53.286Z,17.76
2023-05-10T11:29:21.880Z,17.88
2023-05-10T11:31:50.979Z,17.99
2023-05-10T11:34:31.297Z,17.69
2023-05-10T11:36:59.659Z,17.37
2023-05-10T11:39:31.988Z,17.29
2023-05-10T11:42:00.944Z,17.40
2023-05-10T11:44:32.860Z,17.56
2023-05-10T11:47:02.491Z,17.52
2023-05-10T11:49:31.083Z,17.57
2023-05-10T11:52:09.510Z,17.67
2023-05-10T11:54:37.546Z,17.55
2023-05-10T11:57:06.289Z,17.46
2023-05-10T11:59:33.974Z,17.16
2023-05-10T12:02:02.448Z,17.19
2023-05-10T12:04:31.328Z,17.27
2023-05-10T12:06:59.929Z,17.37
2023-05-10T12:09:42.589Z,17.34
2023-05-10T12:12:17.301Z,17.33
2023-05-10T12:14:45.266Z,17.26
2023-05-10T12:17:14.862Z,17.41
2023-05-10T12:19:42.975Z,17.44
2023-05-10T12:22:11.402Z,17.79
2023-05-10T12:24:40.071Z,17.86
2023-05-10T12:30:01.316Z,17.82
2023-05-10T12:32:48.528Z,17.81
2023-05-10T12:35:17.213Z,17.73
2023-05-10T12:37:45.653Z,17.76
2023-05-10T12:40:13.393Z,17.69
2023-05-10T12:42:41.887Z,17.64
2023-05-10T12:45:10.165Z,17.81
2023-05-10T12:47:39.870Z,17.72
2023-05-10T12:50:09.086Z,17.66
2023-05-10T12:52:37.667Z,17.75
2023-05-10T12:55:05.557Z,17.82
2023-05-10T12:57:33.382Z,17.89
2023-05-10T13:00:01.146Z,17.96
2023-05-10T13:02:29.532Z,17.97
2023-05-10T13:04:57.609Z,17.88
2023-05-10T13:07:25.990Z,17.82
2023-05-10T13:09:53.791Z,17.79
2023-05-10T13:12:22.253Z,17.86
2023-05-10T13:14:49.725Z,17.80
2023-05-10T13:17:18.113Z,17.73
2023-05-10T13:19:46.419Z,17.74
2023-05-10T13:22:17.124Z,17.88
2023-05-10T13:24:46.782Z,18.04
2023-05-10T13:27:15.397Z,17.97
2023-05-10T13:29:44.797Z,17.84
2023-05-10T13:32:13.822Z,17.96
2023-05-10T13:34:41.667Z,17.90
2023-05-10T13:37:09.875Z,17.98
2023-05-10T13:39:39.004Z,17.94
2023-05-10T13:42:07.152Z,17.79
2023-05-10T13:44:35.230Z,17.82
2023-05-10T13:47:04.118Z,17.85
2023-05-10T13:49:32.654Z,17.95
2023-05-10T13:52:08.135Z,17.91
2023-05-10T13:54:36.989Z,17.97
2023-05-10T13:57:05.772Z,17.82
2023-05-10T13:59:34.352Z,17.77
2023-05-10T14:02:05.805Z,17.85
2023-05-10T14:04:35.514Z,18.04
2023-05-10T14:07:03.516Z,18.06
2023-05-10T14:09:31.956Z,17.87
2023-05-10T14:11:59.956Z,17.88
2023-05-10T14:14:28.094Z,17.96
2023-05-10T14:16:56.115Z,17.86
2023-05-10T14:19:23.919Z,17.78
2023-05-10T14:21:53.452Z,17.83
2023-05-10T14:24:21.655Z,17.91
2023-05-10T14:26:49.949Z,17.97
2023-05-10T14:29:17.891Z,17.76
2023-05-10T14:31:46.102Z,17.64
2023-05-10T14:34:13.842Z,17.66
2023-05-10T14:36:41.845Z,17.80
2023-05-10T14:39:11.038Z,17.87
2023-05-10T14:41:40.604Z,17.82
2023-05-10T14:44:08.359Z,17.62
2023-05-10T14:46:37.043Z,17.60
2023-05-10T14:49:05.223Z,17.73
2023-05-10T14:51:33.646Z,17.75
2023-05-10T14:54:02.150Z,17.68
2023-05-10T14:56:30.747Z,17.50
2023-05-10T14:58:58.794Z,17.52
2023-05-10T15:01:27.117Z,17.53
2023-05-10T15:03:55.406Z,17.47
2023-05-10T15:06:33.174Z,17.43
2023-05-10T15:09:00.944Z,17.37
2023-05-10T15:11:28.974Z,17.41
2023-05-10T15:13:56.669Z,17.43
2023-05-10T15:16:25.500Z,17.57
2023-05-10T15:18:53.243Z,17.57
2023-05-10T15:21:22.913Z,17.69
2023-05-10T15:23:50.537Z,17.81
2023-05-10T15:26:18.926Z,17.78
2023-05-10T15:28:47.392Z,17.67
2023-05-10T15:31:15.754Z,17.54
2023-05-10T15:33:43.497Z,17.50
2023-05-10T15:36:11.733Z,17.33
2023-05-10T15:38:39.442Z,17.28
2023-05-10T15:41:07.760Z,17.22
2023-05-10T15:43:35.602Z,17.23
2023-05-10T15:46:03.947Z,17.34
2023-05-10T15:48:32.552Z,17.32
2023-05-10T15:51:00.624Z,17.27
2023-05-10T15:53:28.463Z,17.24
2023-05-10T15:55:58.625Z,17.18
2023-05-10T15:58:27.517Z,17.18
2023-05-10T16:00:55.873Z,17.02
2023-05-10T16:03:23.794Z,16.91
2023-05-10T16:05:52.208Z,16.97
2023-05-10T16:08:20.001Z,16.96
2023-05-10T16:10:49.750Z,16.95
2023-05-10T16:13:17.762Z,16.89
2023-05-10T16:15:45.968Z,16.89
2023-05-10T16:18:13.668Z,16.81
2023-05-10T16:20:42.308Z,16.68
2023-05-10T16:23:11.914Z,16.68
2023-05-10T16:25:40.116Z,16.67
2023-05-10T16:28:08.244Z,16.62
2023-05-10T16:30:36.578Z,16.64
2023-05-10T16:33:04.831Z,16.56
2023-05-10T16:35:33.435Z,16.54
2023-05-10T16:38:02.015Z,16.55
2023-05-10T16:40:31.726Z,16.53
2023-05-10T16:42:59.667Z,16.50
2023-05-10T16:45:28.125Z,16.48
2023-05-10T16:47:55.860Z,16.41
2023-05-10T16:50:24.496Z,16.44
2023-05-10T16:52:52.238Z,16.44
2023-05-10T16:55:20.864Z,16.38
2023-05-10T16:57:49.620Z,16.33
2023-05-10T17:00:18.171Z,16.30
2023-05-10T17:02:46.040Z,16.24
2023-05-10T17:05:14.822Z,16.20
2023-05-10T17:07:42.824Z,16.18
2023-05-10T17:10:11.949Z,16.10
2023-05-10T17:12:39.797Z,16.01
2023-05-10T17:15:09.357Z,16.02
2023-05-10T17:17:37.586Z,15.97
2023-05-10T17:20:09.025Z,15.91
2023-05-10T17:22:38.592Z,15.81
2023-05-10T17:25:08.073Z,15.73
2023-05-10T17:27:35.756Z,15.70
2023-05-10T17:30:04.187Z,15.67
2023-05-10T17:32:32.001Z,15.63
2023-05-10T17:35:00.138Z,15.55
2023-05-10T17:37:27.639Z,15.47
2023-05-10T17:39:55.978Z,15.46
2023-05-10T17:42:23.811Z,15.42
2023-05-10T17:44:51.965Z,15.34
2023-05-10T17:47:20.117Z,15.23
2023-05-10T17:49:48.428Z,15.17
2023-05-10T17:52:16.610Z,15.10
2023-05-10T17:54:44.624Z,15.06
2023-05-10T17:57:12.254Z,15.00
2023-05-10T17:59:40.632Z,14.98
2023-05-10T18:02:08.290Z,14.93
2023-05-10T18:04:40.247Z,14.83
2023-05-10T18:07:09.799Z,14.75
2023-05-10T18:09:38.247Z,14.67
2023-05-10T18:12:07.450Z,14.66
2023-05-10T18:14:41.200Z,14.52
2023-05-10T18:17:09.880Z,14.48
2023-05-10T18:19:38.367Z,14.36
2023-05-10T18:22:08.148Z,14.28
2023-05-10T18:24:40.288Z,14.19
2023-05-10T18:27:13.055Z,14.10
2023-05-10T18:29:41.976Z,13.78
2023-05-10T18:32:09.712Z,13.84
2023-05-10T18:34:38.078Z,13.73
2023-05-10T18:37:08.075Z,13.55
2023-05-10T18:39:39.455Z,13.54
2023-05-10T18:42:11.521Z,13.40
2023-05-10T18:44:41.689Z,13.31
2023-05-10T18:47:09.625Z,13.25
2023-05-10T18:49:37.722Z,13.11
2023-05-10T18:52:05.923Z,13.02
2023-05-10T18:54:34.348Z,12.95
2023-05-10T18:57:02.412Z,12.93
2023-05-10T18:59:31.044Z,12.89
2023-05-10T19:01:59.252Z,12.82
2023-05-10T19:04:27.376Z,12.76
2023-05-10T19:06:56.142Z,12.74
2023-05-10T19:09:24.536Z,12.65
2023-05-10T19:11:52.758Z,12.53
2023-05-10T19:14:21.788Z,12.49
2023-05-10T19:16:49.596Z,12.40
2023-05-10T19:19:18.124Z,12.27
2023-05-10T19:21:45.935Z,12.21
2023-05-10T19:24:14.679Z,12.09
2023-05-10T19:26:42.574Z,11.98
2023-05-10T19:29:11.141Z,11.84
2023-05-10T19:31:39.752Z,11.74
2023-05-10T19:34:09.210Z,11.65
2023-05-10T19:36:37.198Z,11.54
2023-05-10T19:39:38.201Z,11.43
2023-05-10T19:43:18.632Z,11.29
2023-05-10T19:46:26.025Z,11.22
2023-05-10T19:49:34.195Z,11.05
2023-05-10T19:52:43.472Z,10.97
2023-05-10T19:55:54.962Z,10.83
2023-05-10T19:59:16.840Z,10.73
2023-05-10T20:02:27.945Z,10.65
2023-05-10T20:05:31.481Z,10.61
2023-05-10T20:08:28.441Z,10.52
2023-05-10T20:11:32.707Z,10.47
2023-05-10T20:14:32.949Z,10.32
2023-05-10T20:17:40.064Z,10.30
2023-05-10T20:21:04.995Z,10.30
2023-05-10T20:24:14.402Z,10.25
2023-05-10T20:27:52.000Z,10.24
2023-05-10T20:33:29.985Z,9.99
2023-05-10T20:36:15.282Z,9.87
2023-05-10T20:38:43.555Z,9.75
2023-05-10T20:41:12.597Z,9.61
2023-05-10T20:43:40.546Z,9.51
2023-05-10T20:46:09.387Z,9.36
2023-05-10T20:48:37.771Z,9.23
2023-05-10T20:51:06.401Z,9.14
2023-05-10T20:53:34.210Z,9.10
2023-05-10T20:56:02.744Z,9.07
2023-05-10T20:58:48.948Z,9.10
2023-05-10T21:01:34.862Z,9.11
2023-05-10T21:04:04.098Z,9.09
2023-05-10T21:06:32.691Z,9.07
2023-05-10T21:09:00.525Z,9.13
2023-05-10T21:11:29.013Z,9.13
2023-05-10T21:13:57.911Z,9.11
2023-05-10T21:16:27.362Z,9.09
2023-05-10T21:18:56.163Z,9.13
2023-05-10T21:21:24.903Z,9.16
2023-05-10T21:23:52.831Z,9.18
2023-05-10T21:26:21.848Z,9.15
2023-05-10T21:28:50.198Z,9.14
2023-05-10T21:31:18.836Z,9.15
2023-05-10T21:33:47.191Z,9.07
2023-05-10T21:36:15.609Z,9.10
2023-05-10T21:38:45.154Z,9.13
2023-05-10T21:41:13.618Z,9.09
2023-05-10T21:43:41.648Z,9.22
2023-05-10T21:46:10.411Z,9.19
2023-05-10T21:48:38.164Z,9.22
2023-05-10T21:51:06.823Z,9.24
2023-05-10T21:53:37.349Z,9.31
2023-05-10T21:56:07.502Z,9.37
2023-05-10T21:58:35.792Z,9.36
2023-05-10T22:01:04.679Z,9.44
2023-05-10T22:03:33.137Z,9.45
2023-05-10T22:06:01.865Z,9.45
2023-05-10T22:08:29.766Z,9.49
2023-05-10T22:10:57.668Z,9.58
2023-05-10T22:13:26.409Z,9.62
2023-05-10T22:15:54.798Z,9.66
2023-05-10T22:18:23.129Z,9.73
2023-05-10T22:20:51.990Z,9.78
2023-05-10T22:23:20.175Z,9.84
2023-05-10T22:25:49.185Z,9.90
2023-05-10T22:28:17.102Z,10.01
2023-05-10T22:30:46.893Z,10.14
2023-05-10T22:33:17.160Z,10.08
2023-05-10T22:35:45.590Z,10.12
2023-05-10T22:38:12.962Z,10.09
2023-05-10T22:40:42.476Z,10.09
2023-05-10T22:43:10.469Z,10.13
2023-05-10T22:45:38.883Z,10.11
2023-05-10T22:48:07.302Z,10.16
2023-05-10T22:50:37.310Z,10.09
2023-05-10T22:53:05.315Z,10.17
2023-05-10T22:55:33.689Z,10.20
2023-05-10T22:58:02.030Z,10.16
2023-05-10T23:00:30.274Z,10.15
2023-05-10T23:02:58.286Z,10.18
2023-05-10T23:05:27.194Z,10.22
2023-05-10T23:07:55.054Z,10.22
2023-05-10T23:10:22.833Z,10.19
2023-05-10T23:12:50.587Z,10.22
2023-05-10T23:15:18.801Z,10.18
2023-05-10T23:17:53.990Z,10.18
2023-05-10T23:20:23.481Z,10.15
2023-05-10T23:22:51.052Z,10.15
2023-05-10T23:25:18.847Z,10.09
2023-05-10T23:27:46.454Z,10.09
2023-05-10T23:30:15.016Z,10.05
2023-05-10T23:32:42.946Z,10.01
2023-05-10T23:35:11.579Z,9.97
2023-05-10T23:37:39.117Z,9.94
2023-05-10T23:40:08.840Z,9.90
2023-05-10T23:42:36.727Z,9.80
2023-05-10T23:45:05.214Z,9.82
2023-05-10T23:47:33.090Z,9.87
2023-05-10T23:50:01.149Z,9.84
2023-05-10T23:52:28.959Z,9.78
2023-05-10T23:54:57.422Z,9.75
2023-05-10T23:57:25.048Z,9.67
2023-05-10T23:59:53.089Z,9.58
